sensor_id;sensor_type;location;lat;lon;timestamp;temperature;humidity
53310;DHT22;39197;53.200;5.792;2024-03-25T00:02:13;6.50;99.90
53310;DHT22;39197;53.200;5.792;2024-03-25T00:04:38;6.50;99.90
53310;DHT22;39197;53.200;5.792;2024-03-25T00:07:04;6.30;99.90
53310;DHT22;39197;53.200;5.792;2024-03-25T00:09:30;6.30;99.90
53310;DHT22;39197;53.200;5.792;2024-03-25T00:11:55;6.40;99.90
53310;DHT22;39197;53.200;5.792;2024-03-25T00:14:21;6.30;99.90
53310;DHT22;39197;53.200;5.792;2024-03-25T00:16:47;6.20;99.90
53310;DHT22;39197;53.200;5.792;2024-03-25T00:19:13;6.20;99.90
53310;DHT22;39197;53.200;5.792;2024-03-25T00:21:39;6.30;99.90
53310;DHT22;39197;53.200;5.792;2024-03-25T00:24:04;6.20;99.90
53310;DHT22;39197;53.200;5.792;2024-03-25T00:26:30;6.20;99.90
53310;DHT22;39197;53.200;5.792;2024-03-25T00:28:56;6.20;99.90
53310;DHT22;39197;53.200;5.792;2024-03-25T00:31:22;6.20;99.90
53310;DHT22;39197;53.200;5.792;2024-03-25T00:33:47;6.10;99.90
53310;DHT22;39197;53.200;5.792;2024-03-25T00:36:13;6.10;99.90
53310;DHT22;39197;53.200;5.792;2024-03-25T00:38:38;6.00;99.90
53310;DHT22;39197;53.200;5.792;2024-03-25T00:41:04;6.00;99.90
53310;DHT22;39197;53.200;5.792;2024-03-25T00:43:30;6.10;99.90
53310;DHT22;39197;53.200;5.792;2024-03-25T00:45:55;6.10;99.90
53310;DHT22;39197;53.200;5.792;2024-03-25T00:48:22;6.10;99.90
53310;DHT22;39197;53.200;5.792;2024-03-25T00:50:48;6.10;99.90
53310;DHT22;39197;53.200;5.792;2024-03-25T00:53:14;6.10;99.90
53310;DHT22;39197;53.200;5.792;2024-03-25T00:55:40;6.10;99.90
53310;DHT22;39197;53.200;5.792;2024-03-25T00:58:05;6.10;99.90
53310;DHT22;39197;53.200;5.792;2024-03-25T01:00:31;6.10;99.90
53310;DHT22;39197;53.200;5.792;2024-03-25T01:02:57;6.10;99.90
53310;DHT22;39197;53.200;5.792;2024-03-25T01:05:22;6.00;99.90
53310;DHT22;39197;53.200;5.792;2024-03-25T01:07:48;6.00;99.90
53310;DHT22;39197;53.200;5.792;2024-03-25T01:10:14;6.00;99.90
53310;DHT22;39197;53.200;5.792;2024-03-25T01:12:41;6.00;99.90
53310;DHT22;39197;53.200;5.792;2024-03-25T01:15:07;6.00;99.90
53310;DHT22;39197;53.200;5.792;2024-03-25T01:17:38;6.00;99.90
53310;DHT22;39197;53.200;5.792;2024-03-25T01:20:04;6.00;99.90
53310;DHT22;39197;53.200;5.792;2024-03-25T01:22:34;6.00;99.90
53310;DHT22;39197;53.200;5.792;2024-03-25T01:25:00;6.10;99.90
53310;DHT22;39197;53.200;5.792;2024-03-25T01:27:25;6.10;99.90
53310;DHT22;39197;53.200;5.792;2024-03-25T01:29:51;6.10;99.90
53310;DHT22;39197;53.200;5.792;2024-03-25T01:32:17;6.00;99.90
53310;DHT22;39197;53.200;5.792;2024-03-25T01:34:43;6.00;99.90
53310;DHT22;39197;53.200;5.792;2024-03-25T01:37:08;6.00;99.90
53310;DHT22;39197;53.200;5.792;2024-03-25T01:39:34;6.00;99.90
53310;DHT22;39197;53.200;5.792;2024-03-25T01:41:59;6.10;99.90
53310;DHT22;39197;53.200;5.792;2024-03-25T01:44:25;6.00;99.90
53310;DHT22;39197;53.200;5.792;2024-03-25T01:46:51;6.10;99.90
53310;DHT22;39197;53.200;5.792;2024-03-25T01:49:18;6.10;99.90
53310;DHT22;39197;53.200;5.792;2024-03-25T01:51:45;6.00;99.90
53310;DHT22;39197;53.200;5.792;2024-03-25T01:54:11;6.00;99.90
53310;DHT22;39197;53.200;5.792;2024-03-25T01:56:39;6.00;99.90
53310;DHT22;39197;53.200;5.792;2024-03-25T01:59:07;6.00;99.90
53310;DHT22;39197;53.200;5.792;2024-03-25T02:01:33;6.00;99.90
53310;DHT22;39197;53.200;5.792;2024-03-25T02:03:59;6.10;99.90
53310;DHT22;39197;53.200;5.792;2024-03-25T02:06:27;6.00;99.90
53310;DHT22;39197;53.200;5.792;2024-03-25T02:08:53;6.00;99.90
53310;DHT22;39197;53.200;5.792;2024-03-25T02:11:20;6.00;99.90
53310;DHT22;39197;53.200;5.792;2024-03-25T02:13:46;6.00;99.90
53310;DHT22;39197;53.200;5.792;2024-03-25T02:16:11;6.00;99.90
53310;DHT22;39197;53.200;5.792;2024-03-25T02:18:37;6.00;99.90
53310;DHT22;39197;53.200;5.792;2024-03-25T02:21:03;6.00;99.90
53310;DHT22;39197;53.200;5.792;2024-03-25T02:23:29;6.00;99.90
53310;DHT22;39197;53.200;5.792;2024-03-25T02:25:54;6.00;99.90
53310;DHT22;39197;53.200;5.792;2024-03-25T02:28:20;6.00;99.90
53310;DHT22;39197;53.200;5.792;2024-03-25T02:30:46;6.00;99.90
53310;DHT22;39197;53.200;5.792;2024-03-25T02:33:12;6.10;99.90
53310;DHT22;39197;53.200;5.792;2024-03-25T02:35:39;6.00;99.90
53310;DHT22;39197;53.200;5.792;2024-03-25T02:38:06;6.10;99.90
53310;DHT22;39197;53.200;5.792;2024-03-25T02:40:32;6.10;99.90
53310;DHT22;39197;53.200;5.792;2024-03-25T02:42:58;6.10;99.90
53310;DHT22;39197;53.200;5.792;2024-03-25T02:45:24;6.00;99.90
53310;DHT22;39197;53.200;5.792;2024-03-25T02:47:51;6.10;99.90
53310;DHT22;39197;53.200;5.792;2024-03-25T02:50:17;6.00;99.90
53310;DHT22;39197;53.200;5.792;2024-03-25T02:52:43;6.00;99.90
53310;DHT22;39197;53.200;5.792;2024-03-25T02:55:08;6.00;99.90
53310;DHT22;39197;53.200;5.792;2024-03-25T02:57:34;6.00;99.90
53310;DHT22;39197;53.200;5.792;2024-03-25T03:00:00;6.00;99.90
53310;DHT22;39197;53.200;5.792;2024-03-25T03:02:25;6.00;99.90
53310;DHT22;39197;53.200;5.792;2024-03-25T03:04:51;6.00;99.90
53310;DHT22;39197;53.200;5.792;2024-03-25T03:07:16;6.00;99.90
53310;DHT22;39197;53.200;5.792;2024-03-25T03:09:42;6.00;99.90
53310;DHT22;39197;53.200;5.792;2024-03-25T03:12:08;6.00;99.90
53310;DHT22;39197;53.200;5.792;2024-03-25T03:14:34;6.00;99.90
53310;DHT22;39197;53.200;5.792;2024-03-25T03:16:59;5.90;99.90
53310;DHT22;39197;53.200;5.792;2024-03-25T03:19:30;5.90;99.90
53310;DHT22;39197;53.200;5.792;2024-03-25T03:21:56;6.10;99.90
53310;DHT22;39197;53.200;5.792;2024-03-25T03:24:21;6.00;99.90
53310;DHT22;39197;53.200;5.792;2024-03-25T03:26:48;6.00;99.90
53310;DHT22;39197;53.200;5.792;2024-03-25T03:29:14;6.00;99.90
53310;DHT22;39197;53.200;5.792;2024-03-25T03:31:39;6.00;99.90
53310;DHT22;39197;53.200;5.792;2024-03-25T03:34:05;6.00;99.90
53310;DHT22;39197;53.200;5.792;2024-03-25T03:36:30;6.00;99.90
53310;DHT22;39197;53.200;5.792;2024-03-25T03:38:56;5.90;99.90
53310;DHT22;39197;53.200;5.792;2024-03-25T03:41:21;5.90;99.90
53310;DHT22;39197;53.200;5.792;2024-03-25T03:43:47;5.90;99.90
53310;DHT22;39197;53.200;5.792;2024-03-25T03:46:13;6.00;99.90
53310;DHT22;39197;53.200;5.792;2024-03-25T03:48:38;5.90;99.90
53310;DHT22;39197;53.200;5.792;2024-03-25T03:51:05;5.90;99.90
53310;DHT22;39197;53.200;5.792;2024-03-25T03:53:32;5.90;99.90
53310;DHT22;39197;53.200;5.792;2024-03-25T03:55:59;5.90;99.90
53310;DHT22;39197;53.200;5.792;2024-03-25T03:58:25;5.90;99.90
53310;DHT22;39197;53.200;5.792;2024-03-25T04:00:51;5.90;99.90
53310;DHT22;39197;53.200;5.792;2024-03-25T04:03:18;5.90;99.90
53310;DHT22;39197;53.200;5.792;2024-03-25T04:05:44;5.90;99.90
53310;DHT22;39197;53.200;5.792;2024-03-25T04:08:10;5.90;99.90
53310;DHT22;39197;53.200;5.792;2024-03-25T04:10:36;5.70;99.90
53310;DHT22;39197;53.200;5.792;2024-03-25T04:13:03;5.70;99.90
53310;DHT22;39197;53.200;5.792;2024-03-25T04:15:29;5.70;99.90
53310;DHT22;39197;53.200;5.792;2024-03-25T04:17:54;5.60;99.90
53310;DHT22;39197;53.200;5.792;2024-03-25T04:20:20;5.50;99.90
53310;DHT22;39197;53.200;5.792;2024-03-25T04:22:46;5.50;99.90
53310;DHT22;39197;53.200;5.792;2024-03-25T04:25:13;5.40;99.90
53310;DHT22;39197;53.200;5.792;2024-03-25T04:27:42;5.40;99.90
53310;DHT22;39197;53.200;5.792;2024-03-25T04:30:09;5.40;99.90
53310;DHT22;39197;53.200;5.792;2024-03-25T04:32:35;5.30;99.90
53310;DHT22;39197;53.200;5.792;2024-03-25T04:35:01;5.30;99.90
53310;DHT22;39197;53.200;5.792;2024-03-25T04:37:27;5.30;99.90
53310;DHT22;39197;53.200;5.792;2024-03-25T04:39:54;5.30;99.90
53310;DHT22;39197;53.200;5.792;2024-03-25T04:42:20;5.40;99.90
53310;DHT22;39197;53.200;5.792;2024-03-25T04:44:45;5.40;99.90
53310;DHT22;39197;53.200;5.792;2024-03-25T04:47:11;5.30;99.90
53310;DHT22;39197;53.200;5.792;2024-03-25T04:49:37;5.30;99.90
53310;DHT22;39197;53.200;5.792;2024-03-25T04:52:04;5.30;99.90
53310;DHT22;39197;53.200;5.792;2024-03-25T04:54:29;5.30;99.90
53310;DHT22;39197;53.200;5.792;2024-03-25T04:56:55;5.20;99.90
53310;DHT22;39197;53.200;5.792;2024-03-25T04:59:21;5.20;99.90
53310;DHT22;39197;53.200;5.792;2024-03-25T05:01:47;5.20;99.90
53310;DHT22;39197;53.200;5.792;2024-03-25T05:04:12;5.20;99.90
53310;DHT22;39197;53.200;5.792;2024-03-25T05:06:38;5.20;99.90
53310;DHT22;39197;53.200;5.792;2024-03-25T05:09:04;5.10;99.90
53310;DHT22;39197;53.200;5.792;2024-03-25T05:11:31;5.10;99.90
53310;DHT22;39197;53.200;5.792;2024-03-25T05:13:57;5.10;99.90
53310;DHT22;39197;53.200;5.792;2024-03-25T05:16:23;5.10;99.90
53310;DHT22;39197;53.200;5.792;2024-03-25T05:18:48;5.20;99.90
53310;DHT22;39197;53.200;5.792;2024-03-25T05:21:14;5.20;99.90
53310;DHT22;39197;53.200;5.792;2024-03-25T05:23:40;5.20;99.90
53310;DHT22;39197;53.200;5.792;2024-03-25T05:26:05;5.20;99.90
53310;DHT22;39197;53.200;5.792;2024-03-25T05:28:31;5.30;99.90
53310;DHT22;39197;53.200;5.792;2024-03-25T05:30:56;5.20;99.90
53310;DHT22;39197;53.200;5.792;2024-03-25T05:33:22;5.20;99.90
53310;DHT22;39197;53.200;5.792;2024-03-25T05:35:47;5.30;99.90
53310;DHT22;39197;53.200;5.792;2024-03-25T05:38:14;5.20;99.90
53310;DHT22;39197;53.200;5.792;2024-03-25T05:40:39;5.30;99.90
53310;DHT22;39197;53.200;5.792;2024-03-25T05:43:05;5.20;99.90
53310;DHT22;39197;53.200;5.792;2024-03-25T05:45:30;5.20;99.90
53310;DHT22;39197;53.200;5.792;2024-03-25T05:47:56;5.20;99.90
53310;DHT22;39197;53.200;5.792;2024-03-25T05:50:21;5.20;99.90
53310;DHT22;39197;53.200;5.792;2024-03-25T05:52:47;5.10;99.90
53310;DHT22;39197;53.200;5.792;2024-03-25T05:55:12;5.00;99.90
53310;DHT22;39197;53.200;5.792;2024-03-25T05:57:39;5.10;99.90
53310;DHT22;39197;53.200;5.792;2024-03-25T06:00:05;5.10;99.90
53310;DHT22;39197;53.200;5.792;2024-03-25T06:02:33;5.10;99.90
53310;DHT22;39197;53.200;5.792;2024-03-25T06:04:58;5.20;99.90
53310;DHT22;39197;53.200;5.792;2024-03-25T06:07:24;5.20;99.90
53310;DHT22;39197;53.200;5.792;2024-03-25T06:09:49;5.20;99.90
53310;DHT22;39197;53.200;5.792;2024-03-25T06:12:15;5.10;99.90
53310;DHT22;39197;53.200;5.792;2024-03-25T06:14:40;5.20;99.90
53310;DHT22;39197;53.200;5.792;2024-03-25T06:17:06;5.20;99.90
53310;DHT22;39197;53.200;5.792;2024-03-25T06:19:32;5.20;99.90
53310;DHT22;39197;53.200;5.792;2024-03-25T06:21:57;5.30;99.90
53310;DHT22;39197;53.200;5.792;2024-03-25T06:24:23;5.30;99.90
53310;DHT22;39197;53.200;5.792;2024-03-25T06:26:49;5.30;99.90
53310;DHT22;39197;53.200;5.792;2024-03-25T06:29:14;5.30;99.90
53310;DHT22;39197;53.200;5.792;2024-03-25T06:31:40;5.30;99.90
53310;DHT22;39197;53.200;5.792;2024-03-25T06:34:24;5.30;99.90
53310;DHT22;39197;53.200;5.792;2024-03-25T06:36:51;5.30;99.90
53310;DHT22;39197;53.200;5.792;2024-03-25T06:39:16;5.50;99.90
53310;DHT22;39197;53.200;5.792;2024-03-25T06:41:42;5.50;99.90
53310;DHT22;39197;53.200;5.792;2024-03-25T06:44:08;5.70;99.90
53310;DHT22;39197;53.200;5.792;2024-03-25T06:46:33;5.80;99.90
53310;DHT22;39197;53.200;5.792;2024-03-25T06:48:59;6.00;99.90
53310;DHT22;39197;53.200;5.792;2024-03-25T06:51:25;6.10;99.90
53310;DHT22;39197;53.200;5.792;2024-03-25T06:53:51;6.20;99.90
53310;DHT22;39197;53.200;5.792;2024-03-25T06:56:16;6.20;99.90
53310;DHT22;39197;53.200;5.792;2024-03-25T06:58:42;6.30;99.90
53310;DHT22;39197;53.200;5.792;2024-03-25T07:01:09;6.30;99.90
53310;DHT22;39197;53.200;5.792;2024-03-25T07:03:38;6.30;99.90
53310;DHT22;39197;53.200;5.792;2024-03-25T07:06:04;6.50;99.90
53310;DHT22;39197;53.200;5.792;2024-03-25T07:08:30;6.80;99.90
53310;DHT22;39197;53.200;5.792;2024-03-25T07:10:56;7.20;99.90
53310;DHT22;39197;53.200;5.792;2024-03-25T07:13:22;7.40;99.90
53310;DHT22;39197;53.200;5.792;2024-03-25T07:15:48;7.70;99.90
53310;DHT22;39197;53.200;5.792;2024-03-25T07:18:14;7.80;99.90
53310;DHT22;39197;53.200;5.792;2024-03-25T07:20:40;7.70;99.90
53310;DHT22;39197;53.200;5.792;2024-03-25T07:23:06;7.70;99.90
53310;DHT22;39197;53.200;5.792;2024-03-25T07:25:31;7.60;99.90
53310;DHT22;39197;53.200;5.792;2024-03-25T07:27:57;7.50;99.90
53310;DHT22;39197;53.200;5.792;2024-03-25T07:30:23;7.50;99.90
53310;DHT22;39197;53.200;5.792;2024-03-25T07:32:56;8.10;99.90
53310;DHT22;39197;53.200;5.792;2024-03-25T07:35:22;8.50;99.90
53310;DHT22;39197;53.200;5.792;2024-03-25T07:37:47;9.20;99.90
53310;DHT22;39197;53.200;5.792;2024-03-25T07:40:19;10.00;99.90
53310;DHT22;39197;53.200;5.792;2024-03-25T07:42:45;10.20;99.90
53310;DHT22;39197;53.200;5.792;2024-03-25T07:45:11;11.10;99.90
53310;DHT22;39197;53.200;5.792;2024-03-25T07:47:36;11.30;99.90
53310;DHT22;39197;53.200;5.792;2024-03-25T07:50:02;11.20;99.90
53310;DHT22;39197;53.200;5.792;2024-03-25T07:52:28;11.10;99.90
53310;DHT22;39197;53.200;5.792;2024-03-25T07:54:54;11.20;99.90
53310;DHT22;39197;53.200;5.792;2024-03-25T07:57:20;12.20;99.90
53310;DHT22;39197;53.200;5.792;2024-03-25T07:59:46;12.70;99.90
53310;DHT22;39197;53.200;5.792;2024-03-25T08:02:12;12.50;99.90
53310;DHT22;39197;53.200;5.792;2024-03-25T08:04:37;13.10;99.90
53310;DHT22;39197;53.200;5.792;2024-03-25T08:07:03;13.70;99.90
53310;DHT22;39197;53.200;5.792;2024-03-25T08:09:29;13.70;99.90
53310;DHT22;39197;53.200;5.792;2024-03-25T08:11:55;13.70;99.90
53310;DHT22;39197;53.200;5.792;2024-03-25T08:14:20;14.30;99.90
53310;DHT22;39197;53.200;5.792;2024-03-25T08:16:46;14.00;99.90
53310;DHT22;39197;53.200;5.792;2024-03-25T08:19:11;14.00;99.90
53310;DHT22;39197;53.200;5.792;2024-03-25T08:21:37;14.30;99.90
53310;DHT22;39197;53.200;5.792;2024-03-25T08:24:03;14.50;99.90
53310;DHT22;39197;53.200;5.792;2024-03-25T08:26:29;14.80;99.90
53310;DHT22;39197;53.200;5.792;2024-03-25T08:28:55;14.40;99.90
53310;DHT22;39197;53.200;5.792;2024-03-25T08:31:20;14.00;99.90
53310;DHT22;39197;53.200;5.792;2024-03-25T08:33:46;14.00;99.90
53310;DHT22;39197;53.200;5.792;2024-03-25T08:36:12;13.10;99.90
53310;DHT22;39197;53.200;5.792;2024-03-25T08:38:37;12.90;99.90
53310;DHT22;39197;53.200;5.792;2024-03-25T08:41:03;12.60;99.90
53310;DHT22;39197;53.200;5.792;2024-03-25T08:43:29;12.30;99.90
53310;DHT22;39197;53.200;5.792;2024-03-25T08:45:55;12.60;99.90
53310;DHT22;39197;53.200;5.792;2024-03-25T08:48:22;12.50;99.90
53310;DHT22;39197;53.200;5.792;2024-03-25T08:50:48;12.50;99.90
53310;DHT22;39197;53.200;5.792;2024-03-25T08:53:14;12.30;99.90
53310;DHT22;39197;53.200;5.792;2024-03-25T08:55:47;11.90;99.90
53310;DHT22;39197;53.200;5.792;2024-03-25T08:58:13;11.20;99.90
53310;DHT22;39197;53.200;5.792;2024-03-25T09:00:39;10.70;99.90
53310;DHT22;39197;53.200;5.792;2024-03-25T09:03:05;10.40;99.90
53310;DHT22;39197;53.200;5.792;2024-03-25T09:05:30;10.30;99.90
53310;DHT22;39197;53.200;5.792;2024-03-25T09:07:56;10.70;99.90
53310;DHT22;39197;53.200;5.792;2024-03-25T09:10:24;11.00;99.90
53310;DHT22;39197;53.200;5.792;2024-03-25T09:13:08;11.80;99.90
53310;DHT22;39197;53.200;5.792;2024-03-25T09:15:34;12.50;99.90
53310;DHT22;39197;53.200;5.792;2024-03-25T09:18:00;13.40;99.90
53310;DHT22;39197;53.200;5.792;2024-03-25T09:20:26;14.40;99.90
53310;DHT22;39197;53.200;5.792;2024-03-25T09:22:52;14.20;99.90
53310;DHT22;39197;53.200;5.792;2024-03-25T09:25:18;13.70;99.90
53310;DHT22;39197;53.200;5.792;2024-03-25T09:27:47;12.70;99.90
53310;DHT22;39197;53.200;5.792;2024-03-25T09:30:14;12.10;99.90
53310;DHT22;39197;53.200;5.792;2024-03-25T09:32:41;11.50;99.90
53310;DHT22;39197;53.200;5.792;2024-03-25T09:35:08;11.00;99.90
53310;DHT22;39197;53.200;5.792;2024-03-25T09:37:34;10.60;99.90
53310;DHT22;39197;53.200;5.792;2024-03-25T09:39:59;10.70;99.90
53310;DHT22;39197;53.200;5.792;2024-03-25T09:42:34;11.40;99.90
53310;DHT22;39197;53.200;5.792;2024-03-25T09:45:01;12.00;99.90
53310;DHT22;39197;53.200;5.792;2024-03-25T09:47:28;12.00;99.90
53310;DHT22;39197;53.200;5.792;2024-03-25T09:49:59;11.80;99.90
53310;DHT22;39197;53.200;5.792;2024-03-25T09:52:26;11.70;99.90
53310;DHT22;39197;53.200;5.792;2024-03-25T09:54:52;11.80;99.90
53310;DHT22;39197;53.200;5.792;2024-03-25T09:57:18;11.70;99.90
53310;DHT22;39197;53.200;5.792;2024-03-25T09:59:44;12.30;99.90
53310;DHT22;39197;53.200;5.792;2024-03-25T10:02:11;12.70;99.90
53310;DHT22;39197;53.200;5.792;2024-03-25T10:04:45;12.70;99.90
53310;DHT22;39197;53.200;5.792;2024-03-25T10:07:10;12.80;99.90
53310;DHT22;39197;53.200;5.792;2024-03-25T10:09:36;13.10;99.90
53310;DHT22;39197;53.200;5.792;2024-03-25T10:12:02;13.30;99.90
53310;DHT22;39197;53.200;5.792;2024-03-25T10:14:27;13.30;99.90
53310;DHT22;39197;53.200;5.792;2024-03-25T10:16:53;12.90;99.90
53310;DHT22;39197;53.200;5.792;2024-03-25T10:19:18;13.50;99.90
53310;DHT22;39197;53.200;5.792;2024-03-25T10:21:44;13.50;99.90
53310;DHT22;39197;53.200;5.792;2024-03-25T10:24:09;14.50;99.90
53310;DHT22;39197;53.200;5.792;2024-03-25T10:26:36;14.90;99.90
53310;DHT22;39197;53.200;5.792;2024-03-25T10:29:06;15.40;99.90
53310;DHT22;39197;53.200;5.792;2024-03-25T10:31:33;15.60;99.90
53310;DHT22;39197;53.200;5.792;2024-03-25T10:33:59;15.20;99.90
53310;DHT22;39197;53.200;5.792;2024-03-25T10:36:25;14.50;99.90
53310;DHT22;39197;53.200;5.792;2024-03-25T10:39:01;14.30;99.90
53310;DHT22;39197;53.200;5.792;2024-03-25T10:41:34;13.80;99.90
53310;DHT22;39197;53.200;5.792;2024-03-25T10:44:04;13.50;99.90
53310;DHT22;39197;53.200;5.792;2024-03-25T10:46:32;13.70;99.90
53310;DHT22;39197;53.200;5.792;2024-03-25T10:49:21;13.80;99.90
53310;DHT22;39197;53.200;5.792;2024-03-25T10:51:50;13.80;99.90
53310;DHT22;39197;53.200;5.792;2024-03-25T10:54:16;13.90;99.90
53310;DHT22;39197;53.200;5.792;2024-03-25T10:56:43;14.20;99.90
53310;DHT22;39197;53.200;5.792;2024-03-25T10:59:10;14.50;99.90
53310;DHT22;39197;53.200;5.792;2024-03-25T11:01:37;14.70;99.90
53310;DHT22;39197;53.200;5.792;2024-03-25T11:04:03;15.00;99.90
53310;DHT22;39197;53.200;5.792;2024-03-25T11:06:31;14.80;99.90
53310;DHT22;39197;53.200;5.792;2024-03-25T11:08:58;15.60;99.90
53310;DHT22;39197;53.200;5.792;2024-03-25T11:11:31;15.20;99.90
53310;DHT22;39197;53.200;5.792;2024-03-25T11:13:57;14.50;99.90
53310;DHT22;39197;53.200;5.792;2024-03-25T11:16:32;14.50;99.90
53310;DHT22;39197;53.200;5.792;2024-03-25T11:19:02;14.20;99.90
53310;DHT22;39197;53.200;5.792;2024-03-25T11:21:28;14.30;99.90
53310;DHT22;39197;53.200;5.792;2024-03-25T11:23:53;13.80;99.90
53310;DHT22;39197;53.200;5.792;2024-03-25T11:26:24;14.30;99.90
53310;DHT22;39197;53.200;5.792;2024-03-25T11:28:51;14.20;99.90
53310;DHT22;39197;53.200;5.792;2024-03-25T11:31:25;13.80;99.90
53310;DHT22;39197;53.200;5.792;2024-03-25T11:33:51;14.70;99.90
53310;DHT22;39197;53.200;5.792;2024-03-25T11:36:16;14.70;99.90
53310;DHT22;39197;53.200;5.792;2024-03-25T11:38:58;14.50;99.90
53310;DHT22;39197;53.200;5.792;2024-03-25T11:41:23;14.60;99.90
53310;DHT22;39197;53.200;5.792;2024-03-25T11:43:50;14.10;99.90
53310;DHT22;39197;53.200;5.792;2024-03-25T11:46:19;14.10;99.90
53310;DHT22;39197;53.200;5.792;2024-03-25T11:48:45;13.80;99.90
53310;DHT22;39197;53.200;5.792;2024-03-25T11:51:17;13.30;99.90
53310;DHT22;39197;53.200;5.792;2024-03-25T11:53:43;13.60;99.90
53310;DHT22;39197;53.200;5.792;2024-03-25T11:56:08;14.20;99.90
53310;DHT22;39197;53.200;5.792;2024-03-25T11:58:34;14.60;99.90
53310;DHT22;39197;53.200;5.792;2024-03-25T12:01:00;14.70;99.90
53310;DHT22;39197;53.200;5.792;2024-03-25T12:03:26;15.30;99.90
53310;DHT22;39197;53.200;5.792;2024-03-25T12:05:52;15.70;99.90
53310;DHT22;39197;53.200;5.792;2024-03-25T12:08:17;15.50;99.90
53310;DHT22;39197;53.200;5.792;2024-03-25T12:10:43;15.70;99.90
53310;DHT22;39197;53.200;5.792;2024-03-25T12:13:27;15.60;99.90
53310;DHT22;39197;53.200;5.792;2024-03-25T12:15:53;14.60;99.90
53310;DHT22;39197;53.200;5.792;2024-03-25T12:18:19;14.80;99.90
53310;DHT22;39197;53.200;5.792;2024-03-25T12:20:45;14.60;99.90
53310;DHT22;39197;53.200;5.792;2024-03-25T12:23:11;14.40;99.90
53310;DHT22;39197;53.200;5.792;2024-03-25T12:25:37;14.10;99.90
53310;DHT22;39197;53.200;5.792;2024-03-25T12:28:08;14.00;99.90
53310;DHT22;39197;53.200;5.792;2024-03-25T12:30:49;13.10;99.90
53310;DHT22;39197;53.200;5.792;2024-03-25T12:33:15;12.60;99.90
53310;DHT22;39197;53.200;5.792;2024-03-25T12:35:41;12.60;99.90
53310;DHT22;39197;53.200;5.792;2024-03-25T12:38:07;12.50;99.90
53310;DHT22;39197;53.200;5.792;2024-03-25T12:40:32;12.90;99.90
53310;DHT22;39197;53.200;5.792;2024-03-25T12:42:58;12.80;99.90
53310;DHT22;39197;53.200;5.792;2024-03-25T12:45:24;12.70;99.90
53310;DHT22;39197;53.200;5.792;2024-03-25T12:47:50;12.90;99.90
53310;DHT22;39197;53.200;5.792;2024-03-25T12:50:16;12.80;99.90
53310;DHT22;39197;53.200;5.792;2024-03-25T12:52:42;12.90;99.90
53310;DHT22;39197;53.200;5.792;2024-03-25T12:55:07;12.80;99.90
53310;DHT22;39197;53.200;5.792;2024-03-25T12:57:33;12.80;99.90
53310;DHT22;39197;53.200;5.792;2024-03-25T13:00:00;13.20;99.90
53310;DHT22;39197;53.200;5.792;2024-03-25T13:02:26;13.40;99.90
53310;DHT22;39197;53.200;5.792;2024-03-25T13:04:52;13.30;99.90
53310;DHT22;39197;53.200;5.792;2024-03-25T13:07:17;13.00;99.90
53310;DHT22;39197;53.200;5.792;2024-03-25T13:09:43;13.20;99.90
53310;DHT22;39197;53.200;5.792;2024-03-25T13:12:08;13.60;99.90
53310;DHT22;39197;53.200;5.792;2024-03-25T13:14:34;13.60;99.90
53310;DHT22;39197;53.200;5.792;2024-03-25T13:17:00;13.50;99.90
53310;DHT22;39197;53.200;5.792;2024-03-25T13:19:25;13.60;99.90
53310;DHT22;39197;53.200;5.792;2024-03-25T13:21:55;13.20;99.90
53310;DHT22;39197;53.200;5.792;2024-03-25T13:24:20;13.50;99.90
53310;DHT22;39197;53.200;5.792;2024-03-25T13:26:46;13.20;99.90
53310;DHT22;39197;53.200;5.792;2024-03-25T13:29:12;13.70;99.90
53310;DHT22;39197;53.200;5.792;2024-03-25T13:31:37;14.00;99.90
53310;DHT22;39197;53.200;5.792;2024-03-25T13:34:03;14.20;99.90
53310;DHT22;39197;53.200;5.792;2024-03-25T13:36:28;14.30;99.90
53310;DHT22;39197;53.200;5.792;2024-03-25T13:38:54;14.60;99.90
53310;DHT22;39197;53.200;5.792;2024-03-25T13:41:20;14.70;99.90
53310;DHT22;39197;53.200;5.792;2024-03-25T13:43:48;14.80;99.90
53310;DHT22;39197;53.200;5.792;2024-03-25T13:46:14;15.40;99.90
53310;DHT22;39197;53.200;5.792;2024-03-25T13:48:40;16.00;99.90
53310;DHT22;39197;53.200;5.792;2024-03-25T13:51:05;15.80;99.90
53310;DHT22;39197;53.200;5.792;2024-03-25T13:53:31;15.30;99.90
53310;DHT22;39197;53.200;5.792;2024-03-25T13:55:58;14.90;99.90
53310;DHT22;39197;53.200;5.792;2024-03-25T13:58:23;14.40;99.90
53310;DHT22;39197;53.200;5.792;2024-03-25T14:00:49;14.20;99.90
53310;DHT22;39197;53.200;5.792;2024-03-25T14:03:15;14.70;99.90
53310;DHT22;39197;53.200;5.792;2024-03-25T14:05:41;14.80;99.90
53310;DHT22;39197;53.200;5.792;2024-03-25T14:08:07;15.00;99.90
53310;DHT22;39197;53.200;5.792;2024-03-25T14:10:32;15.80;99.90
53310;DHT22;39197;53.200;5.792;2024-03-25T14:12:58;16.50;99.70
53310;DHT22;39197;53.200;5.792;2024-03-25T14:15:23;16.40;98.90
53310;DHT22;39197;53.200;5.792;2024-03-25T14:17:49;16.30;98.90
53310;DHT22;39197;53.200;5.792;2024-03-25T14:20:15;15.70;99.70
53310;DHT22;39197;53.200;5.792;2024-03-25T14:22:40;15.70;99.90
53310;DHT22;39197;53.200;5.792;2024-03-25T14:25:06;15.60;99.90
53310;DHT22;39197;53.200;5.792;2024-03-25T14:27:32;15.60;99.90
53310;DHT22;39197;53.200;5.792;2024-03-25T14:29:58;16.10;99.80
53310;DHT22;39197;53.200;5.792;2024-03-25T14:32:24;16.20;99.90
53310;DHT22;39197;53.200;5.792;2024-03-25T14:34:49;16.10;99.90
53310;DHT22;39197;53.200;5.792;2024-03-25T14:37:15;16.50;99.90
53310;DHT22;39197;53.200;5.792;2024-03-25T14:39:41;16.40;99.90
53310;DHT22;39197;53.200;5.792;2024-03-25T14:42:10;16.60;99.90
53310;DHT22;39197;53.200;5.792;2024-03-25T14:44:37;15.30;99.90
53310;DHT22;39197;53.200;5.792;2024-03-25T14:47:03;15.70;99.90
53310;DHT22;39197;53.200;5.792;2024-03-25T14:49:29;15.10;99.90
53310;DHT22;39197;53.200;5.792;2024-03-25T14:51:54;14.80;99.90
53310;DHT22;39197;53.200;5.792;2024-03-25T14:54:20;14.60;99.90
53310;DHT22;39197;53.200;5.792;2024-03-25T14:56:46;13.90;99.90
53310;DHT22;39197;53.200;5.792;2024-03-25T14:59:12;13.40;99.90
53310;DHT22;39197;53.200;5.792;2024-03-25T15:01:37;12.90;99.90
53310;DHT22;39197;53.200;5.792;2024-03-25T15:04:04;12.50;99.90
53310;DHT22;39197;53.200;5.792;2024-03-25T15:06:29;12.40;99.90
53310;DHT22;39197;53.200;5.792;2024-03-25T15:08:56;12.30;99.90
53310;DHT22;39197;53.200;5.792;2024-03-25T15:11:22;12.00;99.90
53310;DHT22;39197;53.200;5.792;2024-03-25T15:13:48;12.00;99.90
53310;DHT22;39197;53.200;5.792;2024-03-25T15:16:13;11.80;99.90
53310;DHT22;39197;53.200;5.792;2024-03-25T15:18:39;11.60;99.90
53310;DHT22;39197;53.200;5.792;2024-03-25T15:21:05;11.50;99.90
53310;DHT22;39197;53.200;5.792;2024-03-25T15:23:31;11.50;99.90
53310;DHT22;39197;53.200;5.792;2024-03-25T15:25:58;11.60;99.90
53310;DHT22;39197;53.200;5.792;2024-03-25T15:28:24;11.60;99.90
53310;DHT22;39197;53.200;5.792;2024-03-25T15:30:50;11.80;99.90
53310;DHT22;39197;53.200;5.792;2024-03-25T15:33:16;12.00;99.90